Time;durP1;ratioP1;P1;durP2;ratioP2;P2;SDS_P1;SDS_P2;PMS_P1;PMS_P2;Temp;Humidity;BMP_temperature;BMP_pressure;BME280_temperature;BME280_humidity;BME280_pressure;Samples;Min_cycle;Max_cycle;Signal;HPM_P1;HPM_P2
2023/05/16 00:01:57;;;;;;;3.70;2.80;;;10.10;99.90;;;;;;5057447;28;20226;-81
2023/05/16 00:04:26;;;;;;;8.50;3.20;;;10.10;99.90;;;;;;5055643;28;20335;-81
2023/05/16 00:06:53;;;;;;;3.73;2.50;;;10.10;99.90;;;;;;5065500;28;20712;-81
2023/05/16 00:09:21;;;;;;;3.60;2.47;;;10.10;99.90;;;;;;5065932;28;20230;-81
2023/05/16 00:11:49;;;;;;;4.90;2.60;;;10.10;99.90;;;;;;5066345;28;20272;-82
2023/05/16 00:14:16;;;;;;;4.33;2.43;;;10.10;99.90;;;;;;5067930;28;20228;-81
2023/05/16 00:16:42;;;;;;;5.67;3.00;;;10.10;99.90;;;;;;5068217;28;20223;-81
2023/05/16 00:19:09;;;;;;;3.70;2.17;;;10.10;99.90;;;;;;5048967;28;20721;-82
2023/05/16 00:21:36;;;;;;;5.47;2.20;;;10.20;99.90;;;;;;5050552;28;20216;-81
2023/05/16 00:24:04;;;;;;;3.43;2.20;;;10.20;99.90;;;;;;5057306;28;20222;-83
2023/05/16 00:26:32;;;;;;;3.67;2.40;;;10.20;99.90;;;;;;5051082;28;20310;-82
2023/05/16 00:28:59;;;;;;;4.23;2.20;;;10.20;99.90;;;;;;5051172;28;20734;-82
2023/05/16 00:31:26;;;;;;;4.40;2.43;;;10.20;99.90;;;;;;5049801;28;20646;-82
2023/05/16 00:33:53;;;;;;;6.37;2.60;;;10.20;99.90;;;;;;5067619;28;20719;-82
2023/05/16 00:36:20;;;;;;;2.57;2.37;;;10.20;99.90;;;;;;5066603;28;20227;-82
2023/05/16 00:38:47;;;;;;;4.70;2.60;;;10.20;99.90;;;;;;5042043;28;20211;-82
2023/05/16 00:41:14;;;;;;;4.93;2.20;;;10.20;99.90;;;;;;5046807;28;20238;-83
2023/05/16 00:43:43;;;;;;;4.03;2.83;;;10.20;99.90;;;;;;5055134;28;20266;-82
2023/05/16 00:46:09;;;;;;;4.23;2.57;;;10.20;99.90;;;;;;5055549;28;20779;-82
2023/05/16 00:48:37;;;;;;;4.70;2.77;;;10.20;99.90;;;;;;5065655;28;20228;-82
2023/05/16 00:51:08;;;;;;;4.50;2.47;;;10.20;99.90;;;;;;5057852;28;20721;-82
2023/05/16 00:53:35;;;;;;;5.13;2.60;;;10.30;99.90;;;;;;5037630;28;20919;-82
2023/05/16 00:56:03;;;;;;;5.13;2.70;;;10.30;99.90;;;;;;5047201;28;20225;-82
2023/05/16 00:58:32;;;;;;;3.27;2.20;;;10.30;99.90;;;;;;5038723;28;20242;-83
2023/05/16 01:01:02;;;;;;;5.50;2.50;;;10.30;99.90;;;;;;5045225;28;20757;-83
2023/05/16 01:03:29;;;;;;;3.87;2.70;;;10.30;99.90;;;;;;5048044;28;20250;-82
2023/05/16 01:05:57;;;;;;;4.27;2.43;;;10.30;99.90;;;;;;5032877;28;20250;-82
2023/05/16 01:08:24;;;;;;;5.10;2.30;;;10.30;99.90;;;;;;5036172;28;20238;-82
2023/05/16 01:11:00;;;;;;;4.23;2.70;;;10.30;99.90;;;;;;5054925;28;20237;-81
2023/05/16 01:13:33;;;;;;;3.30;2.50;;;10.30;99.90;;;;;;5063560;28;20234;-80
2023/05/16 01:16:05;;;;;;;3.13;2.37;;;10.20;99.90;;;;;;5041220;28;20234;-77
2023/05/16 01:18:41;;;;;;;3.67;2.30;;;10.30;99.90;;;;;;5060478;28;20237;-78
2023/05/16 01:21:16;;;;;;;4.40;2.20;;;10.20;99.90;;;;;;5044650;28;20219;-78
2023/05/16 01:23:51;;;;;;;3.67;2.37;;;10.20;99.90;;;;;;5064704;28;20218;-77
2023/05/16 01:26:22;;;;;;;5.00;2.53;;;10.30;99.90;;;;;;5063271;28;20277;-77
2023/05/16 01:28:50;;;;;;;2.63;2.20;;;10.20;99.90;;;;;;5044505;28;20277;-78
2023/05/16 01:31:19;;;;;;;3.87;2.47;;;10.20;99.90;;;;;;5046356;28;20233;-78
2023/05/16 01:33:46;;;;;;;3.77;2.33;;;10.30;99.90;;;;;;5058547;28;20337;-78
2023/05/16 01:36:21;;;;;;;3.13;2.40;;;10.30;99.90;;;;;;5049438;28;20756;-78
2023/05/16 01:39:01;;;;;;;7.43;2.83;;;10.30;99.90;;;;;;5048171;28;20223;-77
2023/05/16 01:41:35;;;;;;;7.17;2.60;;;10.30;99.90;;;;;;5063207;28;20229;-77
2023/05/16 01:44:08;;;;;;;4.20;2.43;;;10.40;99.90;;;;;;5061666;28;20225;-77
2023/05/16 01:46:40;;;;;;;4.73;2.40;;;10.50;99.90;;;;;;5043386;28;20320;-77
2023/05/16 01:49:20;;;;;;;3.23;2.50;;;10.40;99.90;;;;;;5046600;28;20307;-78
2023/05/16 01:51:52;;;;;;;4.43;2.80;;;10.50;99.90;;;;;;5061066;28;20216;-77
2023/05/16 01:54:20;;;;;;;6.60;3.23;;;10.40;99.90;;;;;;5062926;28;20230;-78
2023/05/16 01:56:52;;;;;;;5.03;3.10;;;10.50;99.90;;;;;;5061353;28;20226;-77
2023/05/16 01:59:21;;;;;;;6.20;3.23;;;10.50;99.90;;;;;;5046290;28;20216;-77
2023/05/16 02:01:48;;;;;;;5.33;3.13;;;10.50;99.90;;;;;;5057484;28;20226;-78
2023/05/16 02:04:15;;;;;;;5.43;3.10;;;10.40;99.90;;;;;;5043992;28;20250;-77
2023/05/16 02:06:42;;;;;;;6.30;3.23;;;10.40;99.90;;;;;;5045415;28;21010;-79
2023/05/16 02:09:09;;;;;;;5.20;2.80;;;10.40;99.90;;;;;;5047174;28;20313;-78
2023/05/16 02:11:35;;;;;;;5.47;2.93;;;10.50;99.90;;;;;;5065171;28;20589;-79
2023/05/16 02:14:03;;;;;;;4.93;2.43;;;10.40;99.90;;;;;;5045102;28;20282;-77
2023/05/16 02:16:30;;;;;;;4.23;2.17;;;10.40;99.90;;;;;;5045193;28;20788;-77
2023/05/16 02:18:58;;;;;;;4.00;2.20;;;10.40;99.90;;;;;;5063457;28;20227;-78
2023/05/16 02:21:25;;;;;;;8.57;2.33;;;10.40;99.90;;;;;;5044251;28;20831;-78
2023/05/16 02:23:52;;;;;;;7.70;2.50;;;10.40;99.90;;;;;;5065874;28;20233;-77
2023/05/16 02:26:19;;;;;;;5.27;1.93;;;10.30;99.90;;;;;;5045461;28;20250;-79
2023/05/16 02:28:48;;;;;;;8.10;2.53;;;10.30;99.90;;;;;;5065165;28;20239;-78
2023/05/16 02:31:27;;;;;;;8.20;2.23;;;10.30;99.90;;;;;;5057142;28;20773;-77
2023/05/16 02:33:53;;;;;;;6.47;2.10;;;10.30;99.90;;;;;;5055833;28;20706;-78
2023/05/16 02:36:21;;;;;;;7.57;1.97;;;10.30;99.90;;;;;;5034178;28;20234;-78
2023/05/16 02:38:48;;;;;;;7.83;2.00;;;10.30;99.90;;;;;;5056792;28;20243;-78
2023/05/16 02:41:15;;;;;;;7.37;2.27;;;10.30;99.90;;;;;;5060971;28;20272;-78
2023/05/16 02:43:43;;;;;;;8.57;2.00;;;10.20;99.90;;;;;;5055452;28;20395;-78
2023/05/16 02:46:27;;;;;;;5.90;2.13;;;10.20;99.90;;;;;;5045837;28;20605;-78
2023/05/16 02:48:54;;;;;;;6.40;1.90;;;10.20;99.90;;;;;;5063843;28;20328;-78
2023/05/16 02:51:22;;;;;;;6.60;1.77;;;10.20;99.90;;;;;;5045928;28;20472;-79
2023/05/16 02:53:50;;;;;;;8.07;2.50;;;10.20;99.90;;;;;;5062286;28;20306;-79
2023/05/16 02:56:18;;;;;;;7.53;2.00;;;10.10;99.90;;;;;;5048109;28;20228;-79
2023/05/16 02:58:48;;;;;;;7.57;2.00;;;10.20;99.90;;;;;;5042819;28;20677;-80
2023/05/16 03:01:15;;;;;;;8.53;2.10;;;10.10;99.90;;;;;;5056444;28;20221;-79
2023/05/16 03:03:43;;;;;;;7.27;2.57;;;10.20;99.90;;;;;;5040861;28;20289;-79
2023/05/16 03:06:10;;;;;;;6.03;1.70;;;10.10;99.90;;;;;;5061863;28;20243;-79
2023/05/16 03:08:37;;;;;;;11.87;2.20;;;10.10;99.90;;;;;;5063067;28;20318;-79
2023/05/16 03:11:04;;;;;;;9.63;2.13;;;10.10;99.90;;;;;;5044600;28;20947;-80
2023/05/16 03:13:30;;;;;;;9.17;2.20;;;10.10;99.90;;;;;;5046320;28;20748;-80
2023/05/16 03:15:59;;;;;;;7.97;1.97;;;10.10;99.90;;;;;;5046113;28;20294;-78
2023/05/16 03:18:25;;;;;;;7.70;1.87;;;10.10;99.90;;;;;;5042199;28;20234;-77
2023/05/16 03:20:53;;;;;;;9.27;2.30;;;10.10;99.90;;;;;;5046535;28;20818;-78
2023/05/16 03:23:23;;;;;;;7.80;2.03;;;10.10;99.90;;;;;;5041219;28;20227;-78
2023/05/16 03:25:50;;;;;;;9.77;1.97;;;10.10;99.90;;;;;;5040153;28;20243;-78
2023/05/16 03:28:20;;;;;;;9.27;2.20;;;10.10;99.90;;;;;;5057302;28;20705;-79
2023/05/16 03:30:47;;;;;;;6.43;2.13;;;10.10;99.90;;;;;;5063991;28;20233;-78
2023/05/16 03:33:15;;;;;;;12.77;3.00;;;10.00;99.90;;;;;;5061439;28;20230;-78
2023/05/16 03:35:43;;;;;;;11.33;2.83;;;10.00;99.90;;;;;;5045191;28;21123;-79
2023/05/16 03:38:12;;;;;;;12.70;2.30;;;10.00;99.90;;;;;;5051129;28;20666;-78
2023/05/16 03:40:41;;;;;;;9.57;2.77;;;10.00;99.90;;;;;;5045597;28;20219;-79
2023/05/16 03:43:07;;;;;;;8.80;2.47;;;10.00;99.90;;;;;;5046905;28;20238;-79
2023/05/16 03:45:34;;;;;;;11.57;2.27;;;10.00;99.90;;;;;;5043927;28;20227;-77
2023/05/16 03:48:01;;;;;;;9.03;2.40;;;10.00;99.90;;;;;;5062854;28;20226;-78
2023/05/16 03:50:28;;;;;;;12.03;2.40;;;10.00;99.90;;;;;;5044441;28;20234;-78
2023/05/16 03:52:55;;;;;;;8.40;2.43;;;10.00;99.90;;;;;;5060262;28;20227;-77
2023/05/16 03:55:23;;;;;;;10.50;2.67;;;10.00;99.90;;;;;;5043466;28;20605;-78
2023/05/16 03:57:51;;;;;;;12.60;2.90;;;9.90;99.90;;;;;;5046392;28;20221;-77
2023/05/16 04:00:18;;;;;;;12.50;3.03;;;9.90;99.90;;;;;;5059142;28;20782;-77
2023/05/16 04:02:44;;;;;;;8.37;2.97;;;9.90;99.90;;;;;;5061657;28;20223;-78
2023/05/16 04:05:12;;;;;;;12.27;2.50;;;9.90;99.90;;;;;;5054035;28;20620;-77
2023/05/16 04:07:39;;;;;;;8.23;2.70;;;9.90;99.90;;;;;;5055100;28;20280;-78
2023/05/16 04:10:07;;;;;;;9.67;2.10;;;9.90;99.90;;;;;;5042292;28;20281;-78
2023/05/16 04:12:35;;;;;;;10.70;2.17;;;9.90;99.90;;;;;;5057795;28;20233;-78
2023/05/16 04:15:02;;;;;;;9.87;2.20;;;9.80;99.90;;;;;;5061641;28;20989;-78
2023/05/16 04:17:30;;;;;;;9.50;2.80;;;9.80;99.90;;;;;;5062234;28;20227;-79
2023/05/16 04:19:57;;;;;;;9.00;2.47;;;9.80;99.90;;;;;;5047220;28;20211;-78
2023/05/16 04:22:24;;;;;;;9.33;2.47;;;9.90;99.90;;;;;;5063746;28;20321;-78
2023/05/16 04:24:51;;;;;;;12.33;3.23;;;9.90;99.90;;;;;;5061290;28;20223;-76
2023/05/16 04:27:18;;;;;;;10.53;2.40;;;9.80;99.90;;;;;;5025935;28;20220;-76
2023/05/16 04:29:46;;;;;;;9.87;2.93;;;9.80;99.90;;;;;;5058745;28;20878;-75
2023/05/16 04:32:14;;;;;;;9.50;2.43;;;9.80;99.90;;;;;;5055719;28;20224;-76
2023/05/16 04:34:43;;;;;;;10.30;2.57;;;9.80;99.90;;;;;;5052938;28;20219;-78
2023/05/16 04:37:09;;;;;;;12.60;2.73;;;9.80;99.90;;;;;;5050334;28;20254;-75
2023/05/16 04:39:36;;;;;;;9.00;2.40;;;9.80;99.90;;;;;;5063158;28;20219;-76
2023/05/16 04:42:04;;;;;;;10.40;2.83;;;9.90;99.90;;;;;;5040435;28;20773;-76
2023/05/16 04:44:31;;;;;;;13.03;2.90;;;9.90;99.90;;;;;;5057267;28;20237;-76
2023/05/16 04:46:59;;;;;;;13.13;2.53;;;9.90;99.90;;;;;;5052024;28;20220;-76
2023/05/16 04:49:25;;;;;;;11.57;2.73;;;9.90;99.90;;;;;;5064788;28;20284;-77
2023/05/16 04:51:53;;;;;;;14.07;2.50;;;9.90;99.90;;;;;;5067628;28;20821;-77
2023/05/16 04:54:19;;;;;;;12.30;2.67;;;10.00;99.90;;;;;;5062027;28;20227;-76
2023/05/16 04:56:46;;;;;;;11.60;2.13;;;10.00;99.90;;;;;;5056451;28;20310;-76
2023/05/16 04:59:14;;;;;;;15.20;3.27;;;10.00;99.90;;;;;;5057909;28;20230;-76
2023/05/16 05:01:40;;;;;;;12.07;2.20;;;10.00;99.90;;;;;;5047369;28;20278;-76
2023/05/16 05:04:09;;;;;;;10.23;2.27;;;10.00;99.90;;;;;;5049198;28;20229;-76
2023/05/16 05:06:37;;;;;;;10.83;2.40;;;10.00;99.90;;;;;;5074684;28;20924;-77
2023/05/16 05:09:04;;;;;;;12.17;2.83;;;10.00;99.90;;;;;;5064648;28;20241;-77
2023/05/16 05:11:31;;;;;;;5.53;2.17;;;10.10;99.90;;;;;;5064063;28;20227;-77
2023/05/16 05:13:58;;;;;;;11.57;2.30;;;10.10;99.90;;;;;;5062492;28;20233;-77
2023/05/16 05:16:25;;;;;;;11.83;2.70;;;10.10;99.90;;;;;;5067665;28;20915;-77
2023/05/16 05:18:51;;;;;;;10.77;2.57;;;10.10;99.90;;;;;;5054740;28;20708;-77
2023/05/16 05:21:22;;;;;;;12.00;2.50;;;10.10;99.90;;;;;;5062395;28;20591;-77
2023/05/16 05:23:49;;;;;;;8.60;2.10;;;10.10;99.90;;;;;;5078844;28;20725;-77
2023/05/16 05:26:16;;;;;;;13.23;2.43;;;10.10;99.90;;;;;;5053066;28;20238;-77
2023/05/16 05:28:43;;;;;;;10.27;1.87;;;10.10;99.90;;;;;;5067229;28;20234;-77
2023/05/16 05:31:10;;;;;;;11.50;2.43;;;10.10;99.90;;;;;;5062843;28;20223;-77
2023/05/16 05:33:37;;;;;;;9.80;1.77;;;10.00;99.90;;;;;;5058659;28;20236;-77
2023/05/16 05:36:05;;;;;;;11.50;2.33;;;10.00;99.90;;;;;;5060739;28;20231;-77
2023/05/16 05:38:33;;;;;;;13.70;2.30;;;10.00;99.90;;;;;;5059134;28;20240;-77
2023/05/16 05:40:59;;;;;;;8.43;1.73;;;10.00;99.90;;;;;;5057936;28;20230;-77
2023/05/16 05:43:27;;;;;;;8.63;2.30;;;10.00;99.90;;;;;;5061989;28;20322;-77
2023/05/16 05:45:53;;;;;;;10.00;1.90;;;10.00;99.90;;;;;;5055089;28;20317;-77
2023/05/16 05:48:20;;;;;;;6.80;1.90;;;10.00;99.90;;;;;;5063678;28;20243;-77
2023/05/16 05:50:47;;;;;;;9.47;2.00;;;10.00;99.90;;;;;;5062427;28;20247;-77
2023/05/16 05:53:13;;;;;;;9.20;2.30;;;10.00;99.90;;;;;;5059952;28;20439;-77
2023/05/16 05:55:41;;;;;;;8.30;2.40;;;10.00;99.90;;;;;;5053879;28;20852;-77
2023/05/16 05:58:09;;;;;;;10.17;2.33;;;10.10;99.90;;;;;;5056472;28;20749;-77
2023/05/16 06:00:35;;;;;;;10.23;2.00;;;10.20;99.90;;;;;;5061506;28;20220;-77
2023/05/16 06:03:02;;;;;;;9.90;1.83;;;10.30;99.90;;;;;;5050393;28;20232;-77
2023/05/16 06:05:29;;;;;;;15.03;3.40;;;10.40;99.90;;;;;;5062238;28;20240;-77
2023/05/16 06:07:56;;;;;;;10.83;2.20;;;10.50;99.90;;;;;;5070774;28;20231;-77
2023/05/16 06:10:23;;;;;;;10.37;1.80;;;10.60;99.90;;;;;;5070530;28;20229;-77
2023/05/16 06:12:51;;;;;;;9.63;2.50;;;10.60;99.90;;;;;;5043443;28;20231;-77
2023/05/16 06:15:18;;;;;;;9.40;2.10;;;10.70;99.80;;;;;;5067880;28;20237;-77
2023/05/16 06:17:44;;;;;;;10.13;2.10;;;10.70;99.40;;;;;;5070300;28;20235;-77
2023/05/16 06:20:12;;;;;;;11.17;2.47;;;10.70;99.40;;;;;;5065230;28;20223;-77
2023/05/16 06:22:38;;;;;;;12.50;2.60;;;10.70;99.40;;;;;;5064924;28;20759;-77
2023/05/16 06:25:06;;;;;;;9.03;2.13;;;10.70;99.40;;;;;;5066664;28;20229;-77
2023/05/16 06:27:33;;;;;;;8.47;2.43;;;10.70;99.40;;;;;;5055672;28;20219;-77
2023/05/16 06:30:01;;;;;;;9.67;2.07;;;10.70;99.50;;;;;;5055114;28;20793;-77
2023/05/16 06:32:28;;;;;;;5.70;1.47;;;10.80;99.30;;;;;;5057983;28;20347;-77
2023/05/16 06:34:55;;;;;;;13.47;2.20;;;10.80;99.20;;;;;;5060675;28;20277;-77
2023/05/16 06:37:22;;;;;;;5.97;1.77;;;10.90;99.00;;;;;;5060680;28;20224;-76
2023/05/16 06:39:49;;;;;;;10.33;2.10;;;10.90;99.00;;;;;;5057784;28;20653;-76
2023/05/16 06:42:16;;;;;;;6.90;1.80;;;11.00;98.20;;;;;;5060446;28;20691;-77
2023/05/16 06:44:42;;;;;;;8.63;1.80;;;11.00;97.80;;;;;;5078465;28;20313;-77
2023/05/16 06:47:11;;;;;;;10.30;1.77;;;11.00;97.70;;;;;;5087111;28;20226;-76
2023/05/16 06:49:37;;;;;;;6.73;1.97;;;11.00;97.60;;;;;;5066721;28;20299;-76
2023/05/16 06:52:05;;;;;;;9.10;1.73;;;11.00;97.60;;;;;;5055642;28;20230;-76
2023/05/16 06:54:32;;;;;;;9.47;1.93;;;11.10;97.70;;;;;;5058646;28;20328;-76
2023/05/16 06:56:58;;;;;;;10.73;1.90;;;11.20;98.00;;;;;;5066627;28;20337;-76
2023/05/16 06:59:25;;;;;;;6.33;1.63;;;11.30;97.50;;;;;;5064289;28;20712;-77
2023/05/16 07:01:52;;;;;;;5.33;1.40;;;11.50;97.70;;;;;;5041014;28;20217;-76
2023/05/16 07:04:20;;;;;;;6.40;1.70;;;11.80;97.80;;;;;;5057265;28;20900;-76
2023/05/16 07:06:46;;;;;;;8.93;1.70;;;12.10;97.00;;;;;;5067011;28;20234;-77
2023/05/16 07:09:13;;;;;;;7.90;1.87;;;12.40;96.60;;;;;;5056667;28;20237;-76
2023/05/16 07:11:39;;;;;;;8.87;1.80;;;12.50;96.00;;;;;;5057807;28;20228;-76
2023/05/16 07:14:06;;;;;;;5.33;1.80;;;12.60;95.70;;;;;;5055742;28;20607;-76
2023/05/16 07:16:33;;;;;;;13.27;2.53;;;12.60;95.10;;;;;;5049444;28;20229;-77
2023/05/16 07:19:00;;;;;;;7.20;1.97;;;12.70;95.10;;;;;;5059300;28;20618;-76
2023/05/16 07:21:28;;;;;;;5.30;2.00;;;12.90;95.80;;;;;;5065722;28;20257;-77
2023/05/16 07:23:55;;;;;;;5.50;1.83;;;13.20;95.20;;;;;;5049491;28;20223;-76
2023/05/16 07:26:22;;;;;;;7.17;1.67;;;13.70;95.00;;;;;;5062903;28;20234;-77
2023/05/16 07:28:49;;;;;;;7.37;1.57;;;14.20;94.60;;;;;;5045601;28;20223;-77
2023/05/16 07:31:16;;;;;;;6.10;1.60;;;14.60;94.20;;;;;;5073081;28;20286;-77
2023/05/16 07:33:43;;;;;;;7.80;1.40;;;15.00;93.10;;;;;;5073007;28;20227;-77
2023/05/16 07:36:11;;;;;;;8.17;1.70;;;15.30;91.80;;;;;;5051863;28;20223;-76
2023/05/16 07:38:38;;;;;;;6.05;1.30;;;15.60;89.90;;;;;;5056180;28;20622;-77
2023/05/16 07:41:06;;;;;;;6.03;1.30;;;15.70;87.40;;;;;;5066367;28;20241;-76
2023/05/16 07:43:34;;;;;;;4.78;1.50;;;15.90;88.40;;;;;;5041363;28;20332;-76
2023/05/16 07:46:00;;;;;;;12.65;1.63;;;16.20;88.40;;;;;;5060240;28;20223;-77
2023/05/16 07:48:27;;;;;;;5.38;1.70;;;16.50;85.10;;;;;;5057701;28;20220;-77
2023/05/16 07:50:54;;;;;;;8.47;1.67;;;16.70;83.60;;;;;;5064052;28;20609;-76
2023/05/16 07:53:21;;;;;;;4.50;1.63;;;16.80;83.20;;;;;;5061650;28;20802;-80
2023/05/16 07:55:49;;;;;;;5.75;1.70;;;16.70;82.90;;;;;;5064653;28;20219;-80
2023/05/16 07:58:16;;;;;;;6.80;1.50;;;16.50;80.60;;;;;;5061365;28;20308;-80
2023/05/16 08:00:43;;;;;;;5.13;1.30;;;16.30;81.20;;;;;;5062044;28;20226;-80
2023/05/16 08:03:10;;;;;;;6.22;1.45;;;16.20;81.00;;;;;;5054578;28;20216;-81
2023/05/16 08:05:36;;;;;;;5.03;1.60;;;16.20;82.00;;;;;;5059101;28;20227;-80
2023/05/16 08:08:03;;;;;;;5.78;1.60;;;16.30;81.70;;;;;;5060604;28;20231;-81
2023/05/16 08:10:30;;;;;;;4.15;1.35;;;16.50;81.40;;;;;;5062249;28;20314;-79
2023/05/16 08:12:58;;;;;;;5.07;1.38;;;16.90;80.00;;;;;;5061680;28;20224;-79
2023/05/16 08:15:27;;;;;;;3.45;1.10;;;17.20;76.20;;;;;;5060414;28;20242;-80
2023/05/16 08:17:57;;;;;;;4.50;1.17;;;17.50;76.90;;;;;;5066034;28;20221;-80
2023/05/16 08:20:23;;;;;;;5.93;1.45;;;17.80;75.10;;;;;;5058931;28;20318;-79
2023/05/16 08:22:51;;;;;;;4.68;1.30;;;18.10;74.40;;;;;;5059629;28;20222;-80
2023/05/16 08:25:18;;;;;;;4.50;1.30;;;18.50;75.10;;;;;;5050588;28;20226;-80
2023/05/16 08:27:45;;;;;;;3.58;1.17;;;18.90;73.00;;;;;;5062053;28;20223;-80
2023/05/16 08:30:14;;;;;;;4.25;1.63;;;19.30;69.70;;;;;;5047514;28;20216;-81
2023/05/16 08:32:41;;;;;;;4.38;1.20;;;19.70;69.40;;;;;;5066477;28;20289;-80
2023/05/16 08:35:09;;;;;;;6.85;1.30;;;20.00;68.10;;;;;;5064948;28;20713;-80
2023/05/16 08:37:36;;;;;;;5.55;1.25;;;20.20;67.90;;;;;;5064798;28;20742;-80
2023/05/16 08:40:07;;;;;;;5.82;1.50;;;20.50;66.70;;;;;;5059574;28;20233;-80
2023/05/16 08:42:34;;;;;;;4.78;1.67;;;20.60;65.10;;;;;;5055613;28;20227;-80
2023/05/16 08:45:01;;;;;;;4.38;1.45;;;20.80;65.70;;;;;;5042654;28;20226;-80
2023/05/16 08:47:31;;;;;;;6.07;1.80;;;20.70;64.80;;;;;;5062213;28;20231;-80
2023/05/16 08:50:00;;;;;;;4.90;1.25;;;20.50;63.40;;;;;;5061910;28;20223;-80
2023/05/16 08:52:28;;;;;;;9.95;1.58;;;20.20;61.70;;;;;;5061830;28;20703;-80
2023/05/16 08:54:57;;;;;;;7.18;1.55;;;19.90;62.50;;;;;;5065936;28;20214;-80
2023/05/16 08:57:24;;;;;;;5.03;1.80;;;19.60;62.30;;;;;;5061243;28;20760;-80
2023/05/16 08:59:53;;;;;;;6.78;1.75;;;19.40;63.70;;;;;;5066048;28;20242;-81
2023/05/16 09:02:21;;;;;;;4.80;1.60;;;19.40;65.20;;;;;;5055966;28;20630;-80
2023/05/16 09:04:49;;;;;;;4.75;1.25;;;19.50;65.30;;;;;;5044538;28;20230;-81
2023/05/16 09:07:16;;;;;;;3.65;1.10;;;19.60;63.30;;;;;;5044175;28;20223;-80
2023/05/16 09:09:42;;;;;;;4.20;1.05;;;19.60;61.70;;;;;;5040747;28;20316;-80
2023/05/16 09:12:09;;;;;;;5.95;1.20;;;19.60;59.40;;;;;;5053591;28;20235;-81
2023/05/16 09:14:37;;;;;;;4.00;1.27;;;19.60;59.50;;;;;;5065068;28;20219;-81
2023/05/16 09:17:04;;;;;;;3.95;1.45;;;19.70;60.00;;;;;;5063192;28;20314;-81
2023/05/16 09:19:37;;;;;;;3.20;1.38;;;19.80;59.70;;;;;;5069847;28;20231;-80
2023/05/16 09:22:06;;;;;;;5.50;1.52;;;19.80;58.90;;;;;;5041702;28;20805;-81
2023/05/16 09:24:33;;;;;;;6.35;1.98;;;19.70;58.80;;;;;;5055693;28;20250;-80
2023/05/16 09:27:08;;;;;;;4.82;1.70;;;19.50;59.50;;;;;;5059819;28;20721;-80
2023/05/16 09:29:35;;;;;;;6.80;1.40;;;19.40;60.40;;;;;;5059848;28;20227;-81
2023/05/16 09:32:08;;;;;;;5.35;1.50;;;19.20;60.80;;;;;;5056519;28;20220;-80
2023/05/16 09:34:38;;;;;;;3.78;1.40;;;19.00;59.50;;;;;;5040303;28;20762;-80
2023/05/16 09:37:07;;;;;;;4.15;1.33;;;18.70;60.00;;;;;;5035888;28;20289;-80
2023/05/16 09:39:33;;;;;;;6.50;1.67;;;18.50;61.10;;;;;;5057754;28;20808;-81
2023/05/16 09:42:00;;;;;;;5.78;1.50;;;18.40;61.30;;;;;;5058949;28;20356;-81
2023/05/16 09:44:27;;;;;;;5.60;1.77;;;18.40;61.70;;;;;;5066777;28;20483;-80
2023/05/16 09:46:54;;;;;;;7.28;1.17;;;18.60;62.20;;;;;;5063180;28;20227;-81
2023/05/16 09:49:21;;;;;;;4.30;1.40;;;18.80;61.90;;;;;;5047032;28;20396;-80
2023/05/16 09:51:48;;;;;;;4.38;1.27;;;19.00;60.70;;;;;;5045026;28;20211;-81
2023/05/16 09:54:16;;;;;;;6.78;1.70;;;19.20;60.60;;;;;;5063215;28;20792;-81
2023/05/16 09:56:50;;;;;;;6.60;1.45;;;19.50;59.40;;;;;;5042369;28;20820;-80
2023/05/16 09:59:17;;;;;;;5.07;1.50;;;19.70;59.70;;;;;;5061559;28;20225;-80
2023/05/16 10:01:44;;;;;;;5.15;1.58;;;20.00;60.00;;;;;;5069634;28;20228;-80
2023/05/16 10:04:14;;;;;;;5.53;1.58;;;20.20;60.10;;;;;;5061665;28;20241;-81
2023/05/16 10:06:42;;;;;;;5.78;1.20;;;20.50;59.00;;;;;;5066748;28;20239;-82
2023/05/16 10:09:11;;;;;;;3.53;1.23;;;20.80;58.30;;;;;;5062185;28;20220;-80
2023/05/16 10:11:42;;;;;;;5.00;1.30;;;21.00;55.40;;;;;;5051059;28;20442;-80
2023/05/16 10:14:10;;;;;;;5.63;1.70;;;21.30;55.90;;;;;;5060362;28;20269;-80
2023/05/16 10:16:37;;;;;;;6.35;1.52;;;21.50;55.90;;;;;;5057898;28;20302;-80
2023/05/16 10:19:04;;;;;;;5.20;1.88;;;21.50;55.20;;;;;;5059708;28;20227;-80
2023/05/16 10:21:34;;;;;;;4.78;1.40;;;21.50;55.30;;;;;;5060617;28;20334;-80
2023/05/16 10:24:04;;;;;;;8.20;2.00;;;21.40;55.30;;;;;;5058534;28;20223;-80
2023/05/16 10:26:32;;;;;;;5.05;1.50;;;21.10;60.80;;;;;;5058306;28;20257;-80
2023/05/16 10:29:01;;;;;;;5.18;1.90;;;20.70;64.10;;;;;;5064309;28;20638;-79
2023/05/16 10:31:29;;;;;;;10.63;1.83;;;20.20;65.70;;;;;;5043143;28;20230;-81
2023/05/16 10:33:56;;;;;;;7.90;1.65;;;19.70;67.40;;;;;;5053166;28;20216;-81
2023/05/16 10:36:23;;;;;;;5.50;1.75;;;19.30;66.80;;;;;;5045976;28;20799;-81
2023/05/16 10:38:51;;;;;;;8.57;1.90;;;19.00;65.10;;;;;;5043513;28;20226;-81
2023/05/16 10:41:20;;;;;;;12.65;2.38;;;18.80;65.90;;;;;;5045252;28;20224;-80
2023/05/16 10:43:56;;;;;;;7.57;1.90;;;18.50;70.00;;;;;;5048810;28;20220;-81
2023/05/16 10:46:26;;;;;;;6.83;1.93;;;18.00;72.00;;;;;;5055190;28;20698;-81
2023/05/16 10:48:53;;;;;;;7.47;1.93;;;17.50;72.30;;;;;;5063932;28;20332;-81
2023/05/16 10:51:34;;;;;;;8.37;2.00;;;17.10;73.10;;;;;;5060335;28;20311;-81
2023/05/16 10:54:06;;;;;;;6.37;2.00;;;16.60;79.80;;;;;;5061124;28;20243;-80
2023/05/16 10:56:33;;;;;;;8.50;1.90;;;16.40;80.00;;;;;;5038227;28;20353;-80
2023/05/16 10:59:00;;;;;;;5.03;1.60;;;16.20;76.80;;;;;;5030450;28;20223;-80
2023/05/16 11:01:29;;;;;;;10.40;1.90;;;16.00;74.60;;;;;;5052733;28;21825;-80
2023/05/16 11:04:07;;;;;;;6.60;2.00;;;15.90;75.80;;;;;;5042119;28;20262;-81
2023/05/16 11:06:43;;;;;;;7.97;1.67;;;15.90;78.00;;;;;;5062919;28;20247;-81
2023/05/16 11:09:22;;;;;;;5.53;1.47;;;16.00;77.40;;;;;;5047565;28;20230;-81
2023/05/16 11:11:58;;;;;;;6.00;1.60;;;16.20;74.40;;;;;;5060804;28;20238;-81
2023/05/16 11:14:27;;;;;;;5.93;1.30;;;16.40;70.70;;;;;;5044027;28;20228;-81
2023/05/16 11:17:02;;;;;;;6.33;1.70;;;16.50;68.40;;;;;;5047006;28;20226;-81
2023/05/16 11:19:32;;;;;;;7.73;2.00;;;16.60;69.80;;;;;;5059240;28;20235;-80
2023/05/16 11:22:15;;;;;;;7.27;1.70;;;16.70;70.70;;;;;;5064279;28;20224;-81
2023/05/16 11:24:51;;;;;;;5.50;1.67;;;16.90;70.40;;;;;;5043040;28;20752;-81
2023/05/16 11:27:26;;;;;;;4.65;1.30;;;17.20;68.80;;;;;;5045515;28;20230;-81
2023/05/16 11:29:55;;;;;;;5.22;1.13;;;17.50;66.50;;;;;;5062644;28;20251;-81
2023/05/16 11:32:23;;;;;;;4.15;1.40;;;17.90;65.30;;;;;;5059261;28;20215;-81
2023/05/16 11:34:51;;;;;;;3.22;1.58;;;18.00;62.70;;;;;;5065480;28;20221;-81
2023/05/16 11:37:19;;;;;;;1.58;0.80;;;18.00;61.80;;;;;;5065191;28;20773;-81
2023/05/16 11:39:47;;;;;;;3.40;1.17;;;18.00;60.50;;;;;;5064620;28;20314;-81
2023/05/16 11:42:13;;;;;;;3.97;1.38;;;17.90;60.20;;;;;;5046153;28;20231;-81
2023/05/16 11:44:40;;;;;;;4.97;1.40;;;17.70;59.80;;;;;;5066223;28;20651;-81
2023/05/16 11:47:08;;;;;;;5.32;1.17;;;17.60;60.20;;;;;;5056076;28;20224;-81
2023/05/16 11:49:36;;;;;;;6.05;1.35;;;17.70;60.50;;;;;;5060415;28;20227;-81
2023/05/16 11:52:05;;;;;;;5.32;1.38;;;17.70;60.50;;;;;;5062337;28;21049;-81
2023/05/16 11:54:33;;;;;;;2.90;1.20;;;17.80;61.10;;;;;;5066365;28;20611;-81
2023/05/16 11:57:00;;;;;;;4.45;1.10;;;18.00;61.10;;;;;;5051587;28;20270;-81
2023/05/16 11:59:27;;;;;;;1.52;0.90;;;18.20;61.40;;;;;;5066583;28;20231;-81
2023/05/16 12:01:54;;;;;;;5.38;1.10;;;18.30;59.30;;;;;;5049433;28;20223;-81
2023/05/16 12:04:22;;;;;;;2.75;1.20;;;18.40;58.80;;;;;;5065159;28;20300;-78
2023/05/16 12:07:00;;;;;;;1.90;0.73;;;18.50;59.60;;;;;;5063901;28;20227;-80
2023/05/16 12:09:27;;;;;;;3.83;1.10;;;18.60;60.30;;;;;;5063318;28;20223;-80
2023/05/16 12:11:54;;;;;;;3.58;1.10;;;18.70;59.70;;;;;;5049919;28;20737;-79
2023/05/16 12:14:21;;;;;;;2.60;0.90;;;18.90;59.90;;;;;;5062808;28;20223;-80
2023/05/16 12:16:48;;;;;;;2.90;1.00;;;19.10;59.30;;;;;;5060533;28;20224;-79
2023/05/16 12:19:15;;;;;;;3.17;0.95;;;19.20;58.00;;;;;;5041664;28;20239;-80
2023/05/16 12:21:42;;;;;;;6.30;1.20;;;19.20;56.70;;;;;;5041294;28;20593;-79
2023/05/16 12:24:12;;;;;;;5.28;1.48;;;19.30;57.20;;;;;;5059325;28;20223;-79
2023/05/16 12:26:41;;;;;;;6.45;1.13;;;19.30;57.30;;;;;;5045925;28;20284;-79
2023/05/16 12:29:10;;;;;;;4.43;1.33;;;19.30;57.60;;;;;;5059797;28;20227;-79
2023/05/16 12:31:38;;;;;;;6.10;1.50;;;19.20;56.60;;;;;;5049730;28;20282;-79
2023/05/16 12:34:05;;;;;;;5.97;1.30;;;19.10;56.60;;;;;;5038988;28;20220;-79
2023/05/16 12:36:33;;;;;;;3.05;1.27;;;19.00;56.20;;;;;;5066552;28;20766;-79
2023/05/16 12:39:02;;;;;;;12.35;1.55;;;18.80;56.10;;;;;;5059483;28;20218;-79
2023/05/16 12:41:31;;;;;;;3.00;1.20;;;18.50;56.30;;;;;;5062729;28;20230;-79
2023/05/16 12:44:10;;;;;;;4.22;1.27;;;18.40;56.40;;;;;;5059762;28;21285;-79
2023/05/16 12:46:41;;;;;;;4.10;0.98;;;18.20;56.40;;;;;;5045110;28;20298;-79
2023/05/16 12:49:08;;;;;;;4.22;1.30;;;18.10;57.00;;;;;;5044665;28;20239;-79
2023/05/16 12:51:35;;;;;;;3.70;1.10;;;18.10;56.90;;;;;;5044465;28;20993;-79